createdAt,value
2017-01-27T00:00:19.826Z,0
2017-01-27T00:01:19.787Z,0
2017-01-27T00:02:19.747Z,0
2017-01-27T00:03:19.356Z,0
2017-01-27T00:04:19.733Z,0
2017-01-27T00:05:19.706Z,0
2017-01-27T00:06:18.918Z,0
2017-01-27T00:07:19.690Z,0
2017-01-27T00:08:19.659Z,0
2017-01-27T00:09:18.873Z,0
2017-01-27T00:10:19.622Z,0
2017-01-27T00:11:19.613Z,0
2017-01-27T00:12:18.802Z,0
2017-01-27T00:13:19.561Z,0
2017-01-27T00:14:19.566Z,0
2017-01-27T00:15:19.530Z,0
2017-01-27T00:16:19.508Z,0
2017-01-27T00:17:19.097Z,0
2017-01-27T00:18:19.506Z,0
2017-01-27T00:19:19.072Z,0
2017-01-27T00:20:19.452Z,0
2017-01-27T00:21:19.422Z,0
2017-01-27T00:22:19.415Z,0
2017-01-27T00:23:19.386Z,0
2017-01-27T00:24:19.378Z,0
2017-01-27T00:25:18.966Z,0
2017-01-27T00:26:19.342Z,0
2017-01-27T00:27:19.328Z,0
2017-01-27T00:28:19.293Z,0
2017-01-27T00:29:19.281Z,0
2017-01-27T00:30:18.880Z,0
2017-01-27T00:31:18.861Z,0
2017-01-27T00:32:18.845Z,0
2017-01-27T00:33:18.829Z,0
2017-01-27T00:34:18.812Z,0
2017-01-27T00:35:18.791Z,0
2017-01-27T00:36:19.147Z,0
2017-01-27T00:37:18.763Z,0
2017-01-27T00:38:18.756Z,0
2017-01-27T00:39:18.717Z,0
2017-01-27T00:40:18.721Z,0
2017-01-27T00:41:18.678Z,0
2017-01-27T00:42:18.670Z,0
2017-01-27T00:43:19.046Z,0
2017-01-27T00:44:19.015Z,0
2017-01-27T00:45:18.626Z,0
2017-01-27T00:46:18.615Z,0
2017-01-27T00:47:18.970Z,0
2017-01-27T00:48:18.953Z,0
2017-01-27T00:49:18.535Z,0
2017-01-27T00:50:18.918Z,0
2017-01-27T00:51:18.504Z,0
2017-01-27T00:52:18.491Z,0
2017-01-27T00:53:18.086Z,0
2017-01-27T00:54:18.855Z,0
2017-01-27T00:55:18.439Z,0
2017-01-27T00:56:18.812Z,0
2017-01-27T00:57:18.411Z,0
2017-01-27T00:58:18.397Z,0
2017-01-27T00:59:17.986Z,0
2017-01-27T01:00:18.336Z,0
2017-01-27T01:01:18.323Z,0
2017-01-27T01:02:18.316Z,0
2017-01-27T01:03:18.686Z,0
2017-01-27T01:04:18.650Z,0
2017-01-27T01:05:18.263Z,0
2017-01-27T01:06:18.242Z,0
2017-01-27T01:07:18.646Z,0
2017-01-27T01:08:18.596Z,0
2017-01-27T01:09:18.583Z,0
2017-01-27T01:10:18.172Z,0
2017-01-27T01:11:18.563Z,0
2017-01-27T01:12:18.131Z,0
2017-01-27T01:13:18.496Z,0
2017-01-27T01:14:18.476Z,0
2017-01-27T01:15:18.483Z,0
2017-01-27T01:16:18.453Z,0
2017-01-27T01:17:18.411Z,0
2017-01-27T01:18:18.413Z,0
2017-01-27T01:19:18.026Z,0
2017-01-27T01:20:18.382Z,0
2017-01-27T01:21:18.368Z,0
2017-01-27T01:22:18.348Z,0
2017-01-27T01:23:18.320Z,0
2017-01-27T01:24:17.923Z,0
2017-01-27T01:25:18.268Z,0
2017-01-27T01:26:18.278Z,0
2017-01-27T01:27:18.245Z,0
2017-01-27T01:28:17.838Z,0
2017-01-27T01:29:18.225Z,0
2017-01-27T01:30:17.814Z,0
2017-01-27T01:31:17.797Z,0
2017-01-27T01:32:18.158Z,0
2017-01-27T01:33:18.160Z,0
2017-01-27T01:34:18.123Z,0
2017-01-27T01:35:18.111Z,0
2017-01-27T01:36:18.093Z,0
2017-01-27T01:37:17.688Z,0
2017-01-27T01:38:18.046Z,0
2017-01-27T01:39:18.034Z,0
2017-01-27T01:40:18.014Z,0
2017-01-27T01:41:17.615Z,0
2017-01-27T01:42:17.608Z,0
2017-01-27T01:43:17.574Z,0
2017-01-27T01:44:17.952Z,0
2017-01-27T01:45:17.529Z,0
2017-01-27T01:46:17.537Z,0
2017-01-27T01:47:17.526Z,0
2017-01-27T01:48:17.892Z,0
2017-01-27T01:49:17.844Z,0
2017-01-27T01:50:17.836Z,0
2017-01-27T01:51:17.447Z,0
2017-01-27T01:52:17.828Z,0
2017-01-27T01:53:17.403Z,0
2017-01-27T01:54:17.777Z,0
2017-01-27T01:55:17.372Z,0
2017-01-27T01:56:17.723Z,0
2017-01-27T01:57:17.341Z,0
2017-01-27T01:58:17.710Z,0
2017-01-27T01:59:17.295Z,0
2017-01-27T02:00:17.317Z,0
2017-01-27T02:01:17.265Z,0
2017-01-27T02:02:17.243Z,0
2017-01-27T02:03:17.235Z,0
2017-01-27T02:04:17.596Z,0
2017-01-27T02:05:17.589Z,0
2017-01-27T02:06:17.188Z,0
2017-01-27T02:07:17.152Z,0
2017-01-27T02:08:17.547Z,0
2017-01-27T02:09:17.522Z,0
2017-01-27T02:10:17.118Z,0
2017-01-27T02:11:17.462Z,0
2017-01-27T02:12:17.454Z,0
2017-01-27T02:13:17.454Z,0
2017-01-27T02:14:17.420Z,0
2017-01-27T02:15:17.034Z,0
2017-01-27T02:16:17.396Z,0
2017-01-27T02:17:16.978Z,0
2017-01-27T02:18:17.357Z,0
2017-01-27T02:19:17.321Z,0
2017-01-27T02:20:16.934Z,0
2017-01-27T02:21:17.296Z,0
2017-01-27T02:22:16.902Z,0
2017-01-27T02:23:17.251Z,0
2017-01-27T02:24:17.244Z,0
2017-01-27T02:25:16.839Z,0
2017-01-27T02:26:17.218Z,0
2017-01-27T02:27:17.213Z,0
2017-01-27T02:28:17.177Z,0
2017-01-27T02:29:17.156Z,0
2017-01-27T02:30:16.765Z,0
2017-01-27T02:31:16.752Z,0
2017-01-27T02:32:17.127Z,0
2017-01-27T02:33:17.087Z,0
2017-01-27T02:34:17.071Z,0
2017-01-27T02:35:17.056Z,0
2017-01-27T02:36:16.637Z,0
2017-01-27T02:37:17.017Z,0
2017-01-27T02:38:16.626Z,0
2017-01-27T02:39:16.589Z,0
2017-01-27T02:40:16.578Z,0
2017-01-27T02:41:16.979Z,0
2017-01-27T02:42:16.167Z,0
2017-01-27T02:43:16.929Z,0
2017-01-27T02:44:16.520Z,0
2017-01-27T02:45:16.890Z,0
2017-01-27T02:46:16.470Z,0
2017-01-27T02:47:16.449Z,0
2017-01-27T02:48:16.442Z,0
2017-01-27T02:49:16.049Z,0
2017-01-27T02:50:16.407Z,0
2017-01-27T02:51:16.776Z,0
2017-01-27T02:52:15.987Z,0
2017-01-27T02:53:16.739Z,0
2017-01-27T02:54:16.736Z,0
2017-01-27T02:55:16.334Z,0
2017-01-27T02:56:16.315Z,0
2017-01-27T02:57:16.688Z,0
2017-01-27T02:58:16.659Z,0
2017-01-27T02:59:16.643Z,0
2017-01-27T03:00:16.241Z,0
2017-01-27T03:01:15.838Z,0
2017-01-27T03:02:15.443Z,0
2017-01-27T03:03:16.587Z,0
2017-01-27T03:04:16.556Z,0
2017-01-27T03:05:16.188Z,0
2017-01-27T03:06:16.522Z,0
2017-01-27T03:07:16.125Z,0
2017-01-27T03:08:16.105Z,0
2017-01-27T03:09:16.090Z,0
2017-01-27T03:10:16.086Z,0
2017-01-27T03:11:16.072Z,0
2017-01-27T03:12:16.412Z,0
2017-01-27T03:13:16.412Z,0
2017-01-27T03:14:16.388Z,0
2017-01-27T03:15:16.380Z,0
2017-01-27T03:16:15.979Z,0
2017-01-27T03:17:16.326Z,0
2017-01-27T03:18:16.311Z,0
2017-01-27T03:19:16.288Z,0
2017-01-27T03:20:16.292Z,0
2017-01-27T03:21:15.879Z,0
2017-01-27T03:22:15.874Z,0
2017-01-27T03:23:15.833Z,0
2017-01-27T03:24:16.228Z,0
2017-01-27T03:25:15.804Z,0
2017-01-27T03:26:16.167Z,0
2017-01-27T03:27:16.157Z,0
2017-01-27T03:28:15.759Z,0
2017-01-27T03:29:15.730Z,0
2017-01-27T03:30:15.327Z,0
2017-01-27T03:31:16.094Z,0
2017-01-27T03:32:16.092Z,0
2017-01-27T03:33:15.677Z,0
2017-01-27T03:34:15.275Z,0
2017-01-27T03:35:16.017Z,0
2017-01-27T03:36:16.012Z,0
2017-01-27T03:37:15.982Z,0
2017-01-27T03:38:15.595Z,0
2017-01-27T03:39:15.949Z,0
2017-01-27T03:40:15.933Z,0
2017-01-27T03:41:15.936Z,0
2017-01-27T03:42:15.897Z,0
2017-01-27T03:43:15.488Z,0
2017-01-27T03:44:15.489Z,0
2017-01-27T03:45:15.845Z,0
2017-01-27T03:46:15.829Z,0
2017-01-27T03:47:15.813Z,0
2017-01-27T03:48:15.795Z,0
2017-01-27T03:49:15.383Z,0
2017-01-27T03:50:14.995Z,0
2017-01-27T03:51:15.759Z,0
2017-01-27T03:52:15.723Z,0
2017-01-27T03:53:15.318Z,0
2017-01-27T03:54:15.685Z,0
2017-01-27T03:55:15.278Z,0
2017-01-27T03:56:15.673Z,0
2017-01-27T03:57:15.649Z,0
2017-01-27T03:58:15.620Z,0
2017-01-27T03:59:15.603Z,0
2017-01-27T04:00:15.204Z,0
2017-01-27T04:01:15.575Z,0
2017-01-27T04:02:15.544Z,0
2017-01-27T04:03:15.157Z,0
2017-01-27T04:04:15.146Z,0
2017-01-27T04:05:15.498Z,0
2017-01-27T04:06:15.474Z,0
2017-01-27T04:07:15.471Z,0
2017-01-27T04:08:15.102Z,0
2017-01-27T04:09:15.444Z,0
2017-01-27T04:10:15.414Z,0
2017-01-27T04:11:15.420Z,0
2017-01-27T04:12:15.383Z,0
2017-01-27T04:13:15.364Z,0
2017-01-27T04:14:14.961Z,0
2017-01-27T04:15:15.343Z,0
2017-01-27T04:16:15.332Z,0
2017-01-27T04:17:15.299Z,0
2017-01-27T04:18:14.907Z,0
2017-01-27T04:19:14.881Z,0
2017-01-27T04:20:15.238Z,0
2017-01-27T04:21:15.237Z,0
2017-01-27T04:22:14.833Z,0
2017-01-27T04:23:15.205Z,0
2017-01-27T04:24:14.796Z,0
2017-01-27T04:25:15.177Z,0
2017-01-27T04:26:14.757Z,0
2017-01-27T04:27:14.734Z,0
2017-01-27T04:28:15.134Z,0
2017-01-27T04:29:15.101Z,0
2017-01-27T04:30:15.088Z,0
2017-01-27T04:31:14.666Z,0
2017-01-27T04:32:15.040Z,0
2017-01-27T04:33:15.033Z,0
2017-01-27T04:34:15.011Z,0
2017-01-27T04:35:15.013Z,0
2017-01-27T04:36:14.995Z,0
2017-01-27T04:37:14.960Z,0
2017-01-27T04:38:14.172Z,0
2017-01-27T04:39:14.167Z,0
2017-01-27T04:40:14.549Z,0
2017-01-27T04:41:14.491Z,0
2017-01-27T04:42:14.472Z,0
2017-01-27T04:43:14.871Z,0
2017-01-27T04:44:14.451Z,0
2017-01-27T04:45:14.835Z,0
2017-01-27T04:46:14.420Z,0
2017-01-27T04:47:14.785Z,0
2017-01-27T04:48:14.774Z,0
2017-01-27T04:49:14.376Z,0
2017-01-27T04:50:14.350Z,0
2017-01-27T04:51:14.720Z,0
2017-01-27T04:52:14.309Z,0
2017-01-27T04:53:14.315Z,0
2017-01-27T04:54:14.264Z,0
2017-01-27T04:55:14.637Z,0
2017-01-27T04:56:14.630Z,0
2017-01-27T04:57:14.215Z,0
2017-01-27T04:58:14.198Z,0
2017-01-27T04:59:14.560Z,0
2017-01-27T05:00:14.167Z,0
2017-01-27T05:01:14.547Z,0
2017-01-27T05:02:14.144Z,0
2017-01-27T05:03:14.507Z,0
2017-01-27T05:04:14.491Z,0
2017-01-27T05:05:14.497Z,0
2017-01-27T05:06:14.066Z,0
2017-01-27T05:07:14.471Z,0
2017-01-27T05:08:14.031Z,0
2017-01-27T05:09:14.394Z,0
2017-01-27T05:10:14.005Z,0
2017-01-27T05:11:14.376Z,0
2017-01-27T05:12:13.965Z,0
2017-01-27T05:13:14.333Z,0
2017-01-27T05:14:13.937Z,0
2017-01-27T05:15:13.935Z,0
2017-01-27T05:16:14.285Z,0
2017-01-27T05:17:13.878Z,0
2017-01-27T05:18:14.234Z,0
2017-01-27T05:19:14.221Z,0
2017-01-27T05:20:13.832Z,0
2017-01-27T05:21:14.179Z,0
2017-01-27T05:22:13.785Z,0
2017-01-27T05:23:14.154Z,0
2017-01-27T05:24:13.759Z,0
2017-01-27T05:25:13.743Z,0
2017-01-27T05:26:13.719Z,0
2017-01-27T05:27:13.698Z,0
2017-01-27T05:28:14.088Z,0
2017-01-27T05:29:14.057Z,0
2017-01-27T05:30:14.038Z,0
2017-01-27T05:31:13.631Z,0
2017-01-27T05:32:14.002Z,0
2017-01-27T05:33:13.973Z,0
2017-01-27T05:34:13.961Z,0
2017-01-27T05:35:13.951Z,0
2017-01-27T05:36:13.153Z,0
2017-01-27T05:37:13.149Z,0
2017-01-27T05:38:13.133Z,0
2017-01-27T05:39:13.877Z,0
2017-01-27T05:40:13.106Z,0
2017-01-27T05:41:13.061Z,0
2017-01-27T05:42:13.061Z,0
2017-01-27T05:43:13.422Z,0
2017-01-27T05:44:13.414Z,0
2017-01-27T05:45:13.390Z,0
2017-01-27T05:46:13.758Z,0
2017-01-27T05:47:13.730Z,0
2017-01-27T05:48:13.359Z,0
2017-01-27T05:49:13.325Z,0
2017-01-27T05:50:13.292Z,0
2017-01-27T05:51:13.674Z,0
2017-01-27T05:52:13.637Z,0
2017-01-27T05:53:13.262Z,0
2017-01-27T05:54:13.238Z,0
2017-01-27T05:55:13.613Z,0
2017-01-27T05:56:13.587Z,0
2017-01-27T05:57:13.582Z,0
2017-01-27T05:58:13.167Z,0
2017-01-27T05:59:13.534Z,0
2017-01-27T06:00:13.530Z,0
2017-01-27T06:01:13.110Z,0
2017-01-27T06:02:13.076Z,0
2017-01-27T06:03:13.459Z,0
2017-01-27T06:04:13.469Z,0
2017-01-27T06:05:13.437Z,0
2017-01-27T06:06:13.406Z,0
2017-01-27T06:07:12.992Z,0
2017-01-27T06:08:13.359Z,0
2017-01-27T06:09:13.355Z,4
2017-01-27T06:10:13.340Z,0
2017-01-27T06:11:13.315Z,0
2017-01-27T06:12:13.294Z,4
2017-01-27T06:13:13.285Z,4
2017-01-27T06:14:13.262Z,4
2017-01-27T06:15:13.247Z,4
2017-01-27T06:16:13.246Z,4
2017-01-27T06:17:13.217Z,4
2017-01-27T06:18:13.217Z,8
2017-01-27T06:19:13.176Z,8
2017-01-27T06:20:13.161Z,8
2017-01-27T06:21:13.151Z,8
2017-01-27T06:22:13.140Z,12
2017-01-27T06:23:13.106Z,16
2017-01-27T06:24:13.083Z,16
2017-01-27T06:25:13.084Z,24
2017-01-27T06:26:13.055Z,28
2017-01-27T06:27:13.037Z,32
2017-01-27T06:28:13.017Z,40
2017-01-27T06:29:13.017Z,48
2017-01-27T06:30:12.596Z,56
2017-01-27T06:31:12.600Z,68
2017-01-27T06:32:12.955Z,80
2017-01-27T06:33:12.934Z,92
2017-01-27T06:34:12.918Z,112
2017-01-27T06:35:12.893Z,128
2017-01-27T06:36:12.886Z,148
2017-01-27T06:37:12.858Z,168
2017-01-27T06:38:12.836Z,192
2017-01-27T06:39:12.823Z,220
2017-01-27T06:40:12.455Z,252
2017-01-27T06:41:12.423Z,284
2017-01-27T06:42:12.391Z,320
2017-01-27T06:43:12.356Z,356
2017-01-27T06:44:12.739Z,396
2017-01-27T06:45:12.328Z,440
2017-01-27T06:46:12.331Z,488
2017-01-27T06:47:12.687Z,536
2017-01-27T06:48:12.274Z,588
2017-01-27T06:49:12.262Z,656
2017-01-27T06:50:12.262Z,748
2017-01-27T06:51:12.617Z,848
2017-01-27T06:52:12.196Z,952
2017-01-27T06:53:12.579Z,1044
2017-01-27T06:54:12.167Z,1132
2017-01-27T06:55:12.550Z,1224
2017-01-27T06:56:12.519Z,1312
2017-01-27T06:57:12.130Z,1408
2017-01-27T06:58:11.332Z,1508
2017-01-27T06:59:12.472Z,1608
2017-01-27T07:00:12.464Z,1712
2017-01-27T07:01:12.432Z,1808
2017-01-27T07:02:11.654Z,1916
2017-01-27T07:03:12.384Z,2020
2017-01-27T07:04:12.367Z,2128
2017-01-27T07:05:12.393Z,2236
2017-01-27T07:06:12.352Z,2348
2017-01-27T07:07:12.355Z,2448
2017-01-27T07:08:12.306Z,2552
2017-01-27T07:09:12.315Z,2656
2017-01-27T07:10:12.271Z,2752
2017-01-27T07:11:12.274Z,2848
2017-01-27T07:12:12.254Z,2968
2017-01-27T07:13:11.848Z,3096
2017-01-27T07:14:11.833Z,3208
2017-01-27T07:15:12.198Z,3320
2017-01-27T07:16:12.189Z,3432
2017-01-27T07:17:12.170Z,3532
2017-01-27T07:18:12.165Z,3640
2017-01-27T07:19:12.117Z,3744
2017-01-27T07:20:11.383Z,3848
2017-01-27T07:21:12.092Z,3952
2017-01-27T07:22:12.104Z,4056
2017-01-27T07:23:12.062Z,4164
2017-01-27T07:24:11.674Z,4272
2017-01-27T07:25:12.043Z,4384
2017-01-27T07:26:11.277Z,4488
2017-01-27T07:27:12.009Z,4592
2017-01-27T07:28:12.020Z,4700
2017-01-27T07:29:11.972Z,4808
2017-01-27T07:30:11.185Z,4940
2017-01-27T07:31:11.948Z,5060
2017-01-27T07:32:11.540Z,5212
2017-01-27T07:33:11.524Z,5472
2017-01-27T07:34:11.894Z,5916
2017-01-27T07:35:11.868Z,6136
2017-01-27T07:36:11.869Z,6212
2017-01-27T07:37:11.085Z,6316
2017-01-27T07:38:11.847Z,6556
2017-01-27T07:39:11.831Z,6616
2017-01-27T07:40:11.819Z,6476
2017-01-27T07:41:11.418Z,6384
2017-01-27T07:42:11.379Z,6692
2017-01-27T07:43:11.365Z,6968
2017-01-27T07:44:11.763Z,7360
2017-01-27T07:45:11.360Z,7656
2017-01-27T07:46:11.329Z,7552
2017-01-27T07:47:11.338Z,7608
2017-01-27T07:48:11.706Z,7872
2017-01-27T07:49:11.679Z,8112
2017-01-27T07:50:11.280Z,8272
2017-01-27T07:51:11.660Z,8380
2017-01-27T07:52:11.658Z,8200
2017-01-27T07:53:11.625Z,8240
2017-01-27T07:54:11.624Z,8296
2017-01-27T07:55:11.611Z,8440
2017-01-27T07:56:11.616Z,8828
2017-01-27T07:57:11.599Z,8948
2017-01-27T07:58:11.188Z,8696
2017-01-27T07:59:11.562Z,8688
2017-01-27T08:00:11.173Z,9020
2017-01-27T08:01:11.147Z,9564
2017-01-27T08:02:11.504Z,9820
2017-01-27T08:03:11.498Z,9904
2017-01-27T08:04:11.485Z,9848
2017-01-27T08:05:11.077Z,10048
2017-01-27T08:06:11.470Z,10644
2017-01-27T08:07:11.452Z,10928
2017-01-27T08:08:10.675Z,11144
2017-01-27T08:09:11.418Z,12084
2017-01-27T08:10:11.040Z,12200
2017-01-27T08:11:11.024Z,12432
2017-01-27T08:12:11.392Z,13344
2017-01-27T08:13:11.403Z,13728
2017-01-27T08:14:11.375Z,14144
2017-01-27T08:15:11.360Z,13344
2017-01-27T08:16:10.967Z,13408
2017-01-27T08:17:11.357Z,13952
2017-01-27T08:18:11.321Z,13664
2017-01-27T08:19:11.311Z,12956
2017-01-27T08:20:11.306Z,13296
2017-01-27T08:21:11.286Z,15136
2017-01-27T08:22:11.286Z,15712
2017-01-27T08:23:11.289Z,15904
2017-01-27T08:24:11.279Z,16320
2017-01-27T08:25:10.848Z,17184
2017-01-27T08:26:11.248Z,17824
2017-01-27T08:27:11.227Z,17696
2017-01-27T08:28:10.828Z,16128
2017-01-27T08:29:11.244Z,14784
2017-01-27T08:30:10.826Z,14312
2017-01-27T08:31:11.186Z,16416
2017-01-27T08:32:11.192Z,18240
2017-01-27T08:33:11.166Z,18976
2017-01-27T08:34:11.156Z,19168
2017-01-27T08:35:11.151Z,19616
2017-01-27T08:36:10.741Z,19488
2017-01-27T08:37:11.125Z,21376
2017-01-27T08:38:10.729Z,21472
2017-01-27T08:39:10.719Z,21280
2017-01-27T08:40:10.718Z,20800
2017-01-27T08:41:11.088Z,20544
2017-01-27T08:42:11.069Z,21760
2017-01-27T08:43:11.063Z,22656
2017-01-27T08:44:11.072Z,23616
2017-01-27T08:45:10.669Z,24640
2017-01-27T08:46:11.047Z,23520
2017-01-27T08:47:11.029Z,24576
2017-01-27T08:48:10.612Z,27328
2017-01-27T08:49:11.003Z,26496
2017-01-27T08:50:10.988Z,28000
2017-01-27T08:51:10.972Z,29440
2017-01-27T08:52:10.574Z,30400
2017-01-27T08:53:10.570Z,30144
2017-01-27T08:54:10.941Z,30208
2017-01-27T08:55:10.940Z,28896
2017-01-27T08:56:10.936Z,25184
2017-01-27T08:57:10.523Z,22112
2017-01-27T08:58:10.510Z,21472
2017-01-27T08:59:10.896Z,21408
2017-01-27T09:00:10.492Z,21472
2017-01-27T09:01:10.472Z,20224
2017-01-27T09:02:10.875Z,19776
2017-01-27T09:03:10.460Z,22208
2017-01-27T09:04:10.444Z,24960
2017-01-27T09:05:10.828Z,28512
2017-01-27T09:06:10.815Z,32576
2017-01-27T09:07:10.413Z,34784
2017-01-27T09:08:10.819Z,35104
2017-01-27T09:09:10.400Z,31488
2017-01-27T09:10:10.401Z,31072
2017-01-27T09:11:10.396Z,30048
2017-01-27T09:12:10.378Z,28768
2017-01-27T09:13:10.744Z,31552
2017-01-27T09:14:10.744Z,31456
2017-01-27T09:15:10.350Z,29312
2017-01-27T09:16:10.717Z,31008
2017-01-27T09:17:10.321Z,31712
2017-01-27T09:18:10.308Z,30272
2017-01-27T09:19:10.676Z,32288
2017-01-27T09:20:10.690Z,35232
2017-01-27T09:21:10.660Z,36768
2017-01-27T09:22:10.657Z,36768
2017-01-27T09:23:10.663Z,37536
2017-01-27T09:24:10.660Z,42432
2017-01-27T09:25:10.643Z,43936
2017-01-27T09:26:10.252Z,44096
2017-01-27T09:27:10.619Z,39424
2017-01-27T09:28:10.606Z,33472
2017-01-27T09:29:10.587Z,27648
2017-01-27T09:30:10.263Z,26272
2017-01-27T09:31:10.587Z,27552
2017-01-27T09:32:10.591Z,31072
2017-01-27T09:33:10.559Z,35456
2017-01-27T09:34:10.556Z,39008
2017-01-27T09:35:10.546Z,39744
2017-01-27T09:36:09.377Z,38784
2017-01-27T09:37:10.531Z,36064
2017-01-27T09:38:10.144Z,35232
2017-01-27T09:39:10.515Z,36032
2017-01-27T09:40:10.114Z,39520
2017-01-27T09:41:10.510Z,42528
2017-01-27T09:42:10.499Z,43040
2017-01-27T09:43:10.493Z,43104
2017-01-27T09:44:10.485Z,41120
2017-01-27T09:45:10.093Z,39232
2017-01-27T09:46:10.469Z,37376
2017-01-27T09:47:10.459Z,39040
2017-01-27T09:48:10.453Z,38528
2017-01-27T09:49:10.449Z,40512
2017-01-27T09:50:10.060Z,41440
2017-01-27T09:51:10.455Z,38464
2017-01-27T09:52:10.420Z,35168
2017-01-27T09:53:10.046Z,36352
2017-01-27T09:54:10.429Z,38432
2017-01-27T09:55:10.404Z,37248
2017-01-27T09:56:10.382Z,37088
2017-01-27T09:57:10.394Z,40416
2017-01-27T09:58:10.381Z,44800
2017-01-27T09:59:10.003Z,46528
2017-01-27T10:00:10.374Z,45312
2017-01-27T10:01:10.366Z,43168
2017-01-27T10:02:10.370Z,42240
2017-01-27T10:03:10.331Z,43264
2017-01-27T10:04:09.954Z,41632
2017-01-27T10:05:10.338Z,41152
2017-01-27T10:06:10.341Z,43360
2017-01-27T10:07:10.312Z,40640
2017-01-27T10:08:09.920Z,40992
2017-01-27T10:09:09.920Z,45120
2017-01-27T10:10:09.899Z,47520
2017-01-27T10:11:10.301Z,45760
2017-01-27T10:12:09.883Z,43456
2017-01-27T10:13:10.288Z,40608
2017-01-27T10:14:09.926Z,36384
2017-01-27T10:15:10.270Z,33952
2017-01-27T10:16:09.868Z,33728
2017-01-27T10:17:09.485Z,31904
2017-01-27T10:18:10.249Z,32768
2017-01-27T10:19:10.243Z,34720
2017-01-27T10:20:10.249Z,33760
2017-01-27T10:21:10.215Z,33504
2017-01-27T10:22:10.207Z,35456
2017-01-27T10:23:10.204Z,38176
2017-01-27T10:24:10.196Z,40256
2017-01-27T10:25:09.807Z,39488
2017-01-27T10:26:09.814Z,39136
2017-01-27T10:27:10.178Z,39264
2017-01-27T10:28:09.799Z,40192
2017-01-27T10:29:10.157Z,42048
2017-01-27T10:30:09.783Z,41056
2017-01-27T10:31:10.170Z,40096
2017-01-27T10:32:09.750Z,39808
2017-01-27T10:33:10.148Z,40928
2017-01-27T10:34:10.127Z,41760
2017-01-27T10:35:10.113Z,41760
2017-01-27T10:36:09.741Z,39520
2017-01-27T10:37:10.104Z,39744
2017-01-27T10:38:09.707Z,42400
2017-01-27T10:39:10.077Z,41952
2017-01-27T10:40:10.070Z,43200
2017-01-27T10:41:09.678Z,45888
2017-01-27T10:42:09.677Z,44096
2017-01-27T10:43:10.077Z,41408
2017-01-27T10:44:10.062Z,40832
2017-01-27T10:45:10.041Z,40928
2017-01-27T10:46:09.656Z,38400
2017-01-27T10:47:09.618Z,36544
2017-01-27T10:48:10.009Z,39360
2017-01-27T10:49:09.989Z,42208
2017-01-27T10:50:09.598Z,39872
2017-01-27T10:51:09.998Z,38336
2017-01-27T10:52:09.593Z,36864
2017-01-27T10:53:09.797Z,40064
2017-01-27T10:54:09.952Z,42720
2017-01-27T10:55:09.967Z,42752
2017-01-27T10:56:09.922Z,40160
2017-01-27T10:57:09.919Z,37216
2017-01-27T10:58:09.919Z,35936
2017-01-27T10:59:09.902Z,36288
2017-01-27T11:00:09.903Z,40064
2017-01-27T11:01:09.896Z,41472
2017-01-27T11:02:09.907Z,37312
2017-01-27T11:03:09.878Z,36800
2017-01-27T11:04:09.849Z,38400
2017-01-27T11:05:09.844Z,39136
2017-01-27T11:06:10.040Z,37664
2017-01-27T11:07:09.820Z,37696
2017-01-27T11:08:09.845Z,41120
2017-01-27T11:09:09.813Z,41760
2017-01-27T11:10:09.027Z,40800
2017-01-27T11:11:09.782Z,42368
2017-01-27T11:12:09.765Z,43392
2017-01-27T11:13:09.750Z,42976
2017-01-27T11:14:09.740Z,44288
2017-01-27T11:15:09.740Z,44480
2017-01-27T11:16:09.754Z,46240
2017-01-27T11:17:09.715Z,47456
2017-01-27T11:18:09.718Z,47840
2017-01-27T11:19:09.710Z,48032
2017-01-27T11:20:09.695Z,46784
2017-01-27T11:21:09.686Z,49152
2017-01-27T11:22:09.682Z,49056
2017-01-27T11:23:09.680Z,44192
2017-01-27T11:24:08.918Z,43968
2017-01-27T11:25:09.642Z,46208
2017-01-27T11:26:09.637Z,44704
2017-01-27T11:27:09.616Z,42528
2017-01-27T11:28:08.842Z,43552
2017-01-27T11:29:09.594Z,41184
2017-01-27T11:30:09.596Z,40704
2017-01-27T11:31:09.788Z,44000
2017-01-27T11:32:09.553Z,47040
2017-01-27T11:33:09.558Z,48736
2017-01-27T11:34:09.164Z,39776
2017-01-27T11:35:09.523Z,32480
2017-01-27T11:36:09.128Z,38688
2017-01-27T11:37:09.738Z,48992
2017-01-27T11:38:23.143Z,53120
2017-01-27T11:39:09.457Z,48352
2017-01-27T11:40:09.491Z,43904
2017-01-27T11:41:09.459Z,43936
2017-01-27T11:42:09.425Z,46080
2017-01-27T11:43:09.051Z,49248
2017-01-27T11:44:09.021Z,47456
2017-01-27T11:45:09.399Z,44448
2017-01-27T11:46:08.999Z,45120
2017-01-27T11:47:08.979Z,45568
2017-01-27T11:48:09.565Z,44448
2017-01-27T11:49:09.548Z,42560
2017-01-27T11:50:09.324Z,40064
2017-01-27T11:51:09.322Z,39040
2017-01-27T11:52:09.311Z,38944
2017-01-27T11:53:09.290Z,39104
2017-01-27T11:54:09.274Z,38944
2017-01-27T11:55:09.280Z,37728
2017-01-27T11:56:09.264Z,36576
2017-01-27T11:57:08.461Z,38304
2017-01-27T11:58:08.843Z,41280
2017-01-27T11:59:09.226Z,42144
2017-01-27T12:00:08.831Z,39616
2017-01-27T12:01:09.203Z,37824
2017-01-27T12:02:08.802Z,39712
2017-01-27T12:03:08.811Z,43328
2017-01-27T12:04:08.767Z,43712
2017-01-27T12:05:09.143Z,41920
2017-01-27T12:06:09.135Z,43744
2017-01-27T12:07:09.320Z,45728
2017-01-27T12:08:09.117Z,47616
2017-01-27T12:09:09.112Z,50400
2017-01-27T12:10:09.090Z,50720
2017-01-27T12:11:09.085Z,50336
2017-01-27T12:12:09.054Z,48032
2017-01-27T12:13:08.890Z,43680
2017-01-27T12:14:08.874Z,38656
2017-01-27T12:15:08.650Z,37440
2017-01-27T12:16:08.638Z,37792
2017-01-27T12:17:08.998Z,36384
2017-01-27T12:18:08.998Z,33056
2017-01-27T12:19:08.969Z,32064
2017-01-27T12:20:08.966Z,32544
2017-01-27T12:21:08.941Z,33408
2017-01-27T12:22:08.955Z,33184
2017-01-27T12:23:08.920Z,32512
2017-01-27T12:24:08.916Z,31264
2017-01-27T12:25:08.919Z,31456
2017-01-27T12:26:08.522Z,32896
2017-01-27T12:27:08.892Z,33696
2017-01-27T12:28:08.476Z,34304
2017-01-27T12:29:08.872Z,34432
2017-01-27T12:30:08.855Z,34912
2017-01-27T12:31:08.450Z,36320
2017-01-27T12:32:08.813Z,40320
2017-01-27T12:33:08.823Z,44224
2017-01-27T12:34:08.815Z,45760
2017-01-27T12:35:08.791Z,42944
2017-01-27T12:36:08.783Z,41408
2017-01-27T12:37:08.744Z,40960
2017-01-27T12:38:08.761Z,40832
2017-01-27T12:39:08.361Z,42976
2017-01-27T12:40:08.338Z,43872
2017-01-27T12:41:08.715Z,43904
2017-01-27T12:42:08.705Z,42816
2017-01-27T12:43:08.684Z,40768
2017-01-27T12:44:08.669Z,39392
2017-01-27T12:45:08.291Z,37568
2017-01-27T12:46:08.657Z,35968
2017-01-27T12:47:08.631Z,34400
2017-01-27T12:48:08.631Z,33184
2017-01-27T12:49:08.812Z,32544
2017-01-27T12:50:08.802Z,31584
2017-01-27T12:51:22.258Z,30208
2017-01-27T12:52:08.190Z,29664
2017-01-27T12:53:08.177Z,31008
2017-01-27T12:54:08.539Z,31936
2017-01-27T12:55:08.741Z,33792
2017-01-27T12:56:08.744Z,39008
2017-01-27T12:57:08.519Z,42592
2017-01-27T12:58:08.514Z,49696
2017-01-27T12:59:08.479Z,52256
2017-01-27T13:00:08.105Z,47424
2017-01-27T13:01:08.455Z,37376
2017-01-27T13:02:08.453Z,32320
2017-01-27T13:03:08.438Z,38368
2017-01-27T13:04:08.426Z,44608
2017-01-27T13:05:08.019Z,44544
2017-01-27T13:06:08.415Z,40928
2017-01-27T13:07:08.391Z,38560
2017-01-27T13:08:08.382Z,36512
2017-01-27T13:09:08.361Z,34976
2017-01-27T13:10:07.959Z,32992
2017-01-27T13:11:08.346Z,30080
2017-01-27T13:12:08.323Z,28224
2017-01-27T13:13:08.320Z,32992
2017-01-27T13:14:08.288Z,40000
2017-01-27T13:15:08.313Z,41952
2017-01-27T13:16:08.277Z,37600
2017-01-27T13:17:08.266Z,29632
2017-01-27T13:18:08.265Z,21952
2017-01-27T13:19:08.441Z,18912
2017-01-27T13:20:08.240Z,17184
2017-01-27T13:21:08.231Z,18176
2017-01-27T13:22:08.228Z,23776
2017-01-27T13:23:08.195Z,35968
2017-01-27T13:24:07.803Z,48928
2017-01-27T13:25:08.185Z,55840
2017-01-27T13:26:08.378Z,54656
2017-01-27T13:27:08.151Z,47936
2017-01-27T13:28:07.761Z,36672
2017-01-27T13:29:08.109Z,30144
2017-01-27T13:30:07.744Z,28768
2017-01-27T13:31:08.312Z,27008
2017-01-27T13:32:08.105Z,26624
2017-01-27T13:33:07.683Z,30560
2017-01-27T13:34:07.686Z,37184
2017-01-27T13:35:08.041Z,41408
2017-01-27T13:36:08.041Z,41088
2017-01-27T13:37:08.056Z,37696
2017-01-27T13:38:08.033Z,32704
2017-01-27T13:39:08.011Z,31072
2017-01-27T13:40:07.999Z,34304
2017-01-27T13:41:07.992Z,34624
2017-01-27T13:42:07.972Z,29696
2017-01-27T13:43:07.948Z,29440
2017-01-27T13:44:07.956Z,30880
2017-01-27T13:45:07.947Z,30688
2017-01-27T13:46:07.935Z,30816